Time;durP1;ratioP1;P1;durP2;ratioP2;P2;SDS_P1;SDS_P2;PMS_P1;PMS_P2;Temp;Humidity;BMP_temperature;BMP_pressure;BME280_temperature;BME280_humidity;BME280_pressure;Samples;Min_cycle;Max_cycle;Signal;HPM_P1;HPM_P2
2022/04/06 00:00:11;;;;;;;15.13;8.82;;;;;;;9.88;58.51;99517.28;5078061;28;20294;-78
2022/04/06 00:02:39;;;;;;;21.88;9.25;;;;;;;9.99;58.71;99523.25;5078709;28;20036;-76
2022/04/06 00:05:06;;;;;;;20.88;9.10;;;;;;;9.94;58.29;99523.75;5078846;28;20218;-73
2022/04/06 00:07:31;;;;;;;13.95;8.05;;;;;;;9.46;58.78;99482.16;5077827;28;20095;-74
2022/04/06 00:09:57;;;;;;;12.90;7.20;;;;;;;9.12;60.34;99512.06;5076007;28;20314;-73
2022/04/06 00:12:22;;;;;;;13.20;7.50;;;;;;;9.37;59.64;99515.69;5078018;28;20284;-76
2022/04/06 00:14:48;;;;;;;13.30;7.07;;;;;;;8.94;60.92;99498.13;5077767;28;20040;-76
2022/04/06 00:17:14;;;;;;;11.40;7.00;;;;;;;9.38;60.01;99513.84;5077945;28;20037;-73
2022/04/06 00:19:39;;;;;;;11.60;6.93;;;;;;;9.56;59.15;99518.03;5080340;28;20041;-76
2022/04/06 00:22:05;;;;;;;10.13;6.47;;;;;;;9.47;58.59;99484.66;5082782;28;20051;-73
2022/04/06 00:24:31;;;;;;;11.68;7.00;;;;;;;9.50;59.56;99523.97;5081482;28;20613;-73
2022/04/06 00:26:56;;;;;;;11.57;6.57;;;;;;;9.49;59.70;99522.31;5081482;28;20230;-76
2022/04/06 00:29:22;;;;;;;12.05;7.25;;;;;;;9.57;59.39;99532.09;5083564;28;20032;-73
2022/04/06 00:31:48;;;;;;;11.85;6.90;;;;;;;9.66;59.01;99517.06;5082218;28;20063;-73
2022/04/06 00:34:13;;;;;;;15.20;7.13;;;;;;;9.64;58.70;99525.16;5082596;28;20036;-73
2022/04/06 00:36:39;;;;;;;11.75;6.53;;;;;;;9.53;58.95;99526.31;5081387;28;20221;-74
2022/04/06 00:39:04;;;;;;;11.10;6.97;;;;;;;9.55;59.28;99526.97;5082520;28;20025;-76
2022/04/06 00:41:30;;;;;;;10.95;6.45;;;;;;;9.63;59.06;99523.50;5079241;28;20319;-76
2022/04/06 00:44:15;;;;;;;12.52;7.18;;;;;;;9.76;58.73;99533.63;5082426;28;20036;-76
2022/04/06 00:46:45;;;;;;;14.55;6.97;;;;;;;9.77;58.56;99532.63;5081129;28;20059;-74
2022/04/06 00:49:14;;;;;;;16.20;7.32;;;;;;;9.46;58.61;99533.22;5081138;28;20034;-73
2022/04/06 00:51:42;;;;;;;15.98;8.18;;;;;;;9.42;59.29;99536.34;5081101;28;20253;-73
2022/04/06 00:54:08;;;;;;;15.65;7.97;;;;;;;9.40;59.29;99520.63;5080981;28;20084;-73
2022/04/06 00:56:35;;;;;;;13.85;8.02;;;;;;;9.49;58.94;99538.19;5081327;28;20111;-76
2022/04/06 00:59:02;;;;;;;16.73;8.50;;;;;;;9.44;59.30;99537.00;5079790;28;20036;-74
2022/04/06 01:01:27;;;;;;;19.63;8.57;;;;;;;9.34;59.50;99531.81;5081016;28;20054;-73
2022/04/06 01:03:53;;;;;;;15.20;8.20;;;;;;;9.37;59.44;99534.16;5081698;28;20199;-76
2022/04/06 01:06:20;;;;;;;14.40;7.93;;;;;;;9.39;59.56;99537.47;5082303;28;20327;-74
2022/04/06 01:08:46;;;;;;;17.45;8.32;;;;;;;9.39;59.18;99536.66;5081849;28;20025;-74
2022/04/06 01:11:12;;;;;;;14.45;7.90;;;;;;;9.47;58.86;99544.63;5080602;28;20064;-73
2022/04/06 01:13:37;;;;;;;16.60;8.23;;;;;;;9.44;59.07;99553.69;5081508;28;20032;-76
2022/04/06 01:16:03;;;;;;;17.65;8.75;;;;;;;9.41;59.48;99550.53;5080903;28;20033;-74
2022/04/06 01:18:31;;;;;;;15.15;8.73;;;;;;;9.41;59.24;99550.53;5081813;28;20040;-73
2022/04/06 01:20:57;;;;;;;23.00;8.98;;;;;;;9.40;58.80;99541.78;5081016;28;20099;-76
2022/04/06 01:23:22;;;;;;;17.23;8.02;;;;;;;9.30;59.37;99548.97;5079024;28;20029;-76
2022/04/06 01:25:49;;;;;;;17.98;8.80;;;;;;;9.14;59.82;99540.97;5080073;28;20282;-76
2022/04/06 01:28:14;;;;;;;17.20;8.65;;;;;;;9.13;60.43;99541.97;5080431;28;20044;-76
2022/04/06 01:30:40;;;;;;;14.40;7.40;;;;;;;9.07;60.00;99534.66;5077841;28;20211;-77
2022/04/06 01:33:06;;;;;;;16.80;8.77;;;;;;;8.92;61.00;99540.53;5079387;28;20032;-75
2022/04/06 01:35:31;;;;;;;17.33;8.98;;;;;;;8.90;60.68;99531.94;5078181;28;20036;-73
2022/04/06 01:37:57;;;;;;;15.45;8.30;;;;;;;9.16;59.98;99536.38;5080880;28;20039;-76
2022/04/06 01:40:25;;;;;;;16.13;8.38;;;;;;;9.27;59.88;99547.47;5081278;28;20127;-73
2022/04/06 01:42:51;;;;;;;15.15;8.02;;;;;;;9.29;59.88;99547.31;5080375;28;20032;-77
2022/04/06 01:45:16;;;;;;;16.20;8.82;;;;;;;9.33;59.06;99553.94;5080790;28;20044;-76
2022/04/06 01:47:42;;;;;;;16.63;8.40;;;;;;;9.28;59.58;99559.69;5079615;28;20202;-74
2022/04/06 01:53:11;;;;;;;16.45;8.95;;;;;;;9.15;59.92;99569.03;5021615;28;20048;-73
2022/04/06 01:55:37;;;;;;;15.93;8.65;;;;;;;9.19;59.45;99552.72;5020386;28;20038;-76
2022/04/06 01:58:02;;;;;;;14.77;9.07;;;;;;;9.21;59.77;99569.25;5070565;28;20035;-73
2022/04/06 02:00:28;;;;;;;16.52;7.95;;;;;;;9.12;59.26;99572.81;5079656;28;20056;-74
2022/04/06 02:02:53;;;;;;;16.15;8.25;;;;;;;9.07;59.63;99574.28;5080629;28;20035;-76
2022/04/06 02:05:20;;;;;;;14.82;8.05;;;;;;;8.96;59.50;99570.94;5077657;28;20051;-74
2022/04/06 02:07:46;;;;;;;18.08;8.10;;;;;;;8.71;59.67;99563.81;5079517;28;20046;-76
2022/04/06 02:10:13;;;;;;;15.35;7.70;;;;;;;8.66;60.55;99568.75;5079459;28;20092;-73
2022/04/06 02:12:39;;;;;;;16.52;8.05;;;;;;;8.59;60.71;99572.97;5079503;28;20036;-73
2022/04/06 02:15:06;;;;;;;19.75;8.55;;;;;;;8.48;61.57;99573.22;5079724;28;20052;-73
2022/04/06 02:17:32;;;;;;;15.50;8.23;;;;;;;8.64;60.89;99587.38;5080446;28;20350;-78
2022/04/06 02:19:57;;;;;;;13.07;7.78;;;;;;;8.46;60.92;99577.81;5080085;28;20035;-74
2022/04/06 02:22:23;;;;;;;13.40;8.55;;;;;;;8.39;61.03;99582.88;5080686;28;20112;-75
2022/04/06 02:24:49;;;;;;;14.18;8.30;;;;;;;8.32;61.86;99584.41;5079298;28;20047;-75
2022/04/06 02:27:14;;;;;;;17.35;8.65;;;;;;;8.60;60.50;99578.09;5080542;28;20032;-73
2022/04/06 02:29:40;;;;;;;15.15;7.63;;;;;;;8.50;61.12;99561.53;5079249;28;20078;-76
2022/04/06 02:32:07;;;;;;;15.60;8.35;;;;;;;8.61;60.34;99582.41;5077689;28;20263;-73
2022/04/06 02:34:33;;;;;;;14.27;8.05;;;;;;;8.61;60.94;99582.41;5080328;28;20336;-73
2022/04/06 02:36:59;;;;;;;13.35;7.40;;;;;;;8.55;60.97;99576.91;5080600;28;20028;-73
2022/04/06 02:39:24;;;;;;;13.90;7.72;;;;;;;8.61;60.53;99587.69;5080230;28;20063;-75
2022/04/06 02:41:50;;;;;;;14.68;8.23;;;;;;;8.42;60.93;99572.03;5078418;28;20215;-75
2022/04/06 02:44:15;;;;;;;14.43;7.63;;;;;;;8.54;60.73;99588.44;5079218;28;20017;-74
2022/04/06 02:46:46;;;;;;;14.02;8.57;;;;;;;8.35;61.35;99593.88;5079835;28;20032;-74
2022/04/06 02:49:11;;;;;;;17.63;8.25;;;;;;;8.51;61.53;99594.84;5078865;28;20115;-75
2022/04/06 02:51:37;;;;;;;12.77;8.32;;;;;;;8.52;60.56;99587.78;5076761;28;20405;-73
2022/04/06 02:54:02;;;;;;;17.45;8.50;;;;;;;8.36;60.65;99583.19;5079744;28;20071;-74
2022/04/06 02:56:28;;;;;;;16.30;8.55;;;;;;;8.41;60.53;99607.31;5078602;28;20036;-74
2022/04/06 02:58:54;;;;;;;25.48;10.02;;;;;;;8.26;60.13;99590.28;5078836;28;20032;-76
2022/04/06 03:01:20;;;;;;;25.35;11.68;;;;;;;8.23;60.90;99612.53;5079818;28;20045;-73
2022/04/06 03:03:46;;;;;;;32.50;14.25;;;;;;;8.24;62.14;99602.78;5078709;28;20032;-76
2022/04/06 03:06:11;;;;;;;36.47;15.23;;;;;;;8.35;61.61;99602.63;5078707;28;20043;-76
2022/04/06 03:08:37;;;;;;;29.70;11.50;;;;;;;8.33;61.26;99604.59;5079322;28;20028;-76
2022/04/06 03:11:03;;;;;;;22.40;11.18;;;;;;;8.28;61.68;99606.78;5078778;28;20040;-74
2022/04/06 03:13:28;;;;;;;23.90;10.70;;;;;;;8.30;62.22;99600.38;5079636;28;20067;-73
2022/04/06 03:15:54;;;;;;;20.20;10.18;;;;;;;8.35;61.89;99605.28;5078263;28;20055;-76
2022/04/06 03:18:20;;;;;;;22.17;10.00;;;;;;;8.31;62.16;99602.03;5076712;28;20031;-74
2022/04/06 03:20:46;;;;;;;20.67;9.98;;;;;;;8.36;61.92;99614.00;5079361;28;20096;-78
2022/04/06 03:23:11;;;;;;;21.75;10.05;;;;;;;8.25;61.75;99612.38;5078293;28;20114;-76
2022/04/06 03:25:37;;;;;;;21.17;10.45;;;;;;;8.39;61.09;99605.78;5078595;28;20377;-74
2022/04/06 03:28:02;;;;;;;18.20;10.05;;;;;;;8.48;61.52;99621.56;5079062;28;20342;-73
2022/04/06 03:30:28;;;;;;;28.48;10.38;;;;;;;8.63;60.51;99620.03;5078534;28;20374;-76
2022/04/06 03:32:54;;;;;;;18.00;10.13;;;;;;;8.54;60.82;99625.38;5080121;28;20376;-73
2022/04/06 03:35:20;;;;;;;47.60;21.80;;;;;;;8.28;61.14;99615.53;5091276;28;20095;-76
2022/04/06 03:37:45;;;;;;;37.35;15.50;;;;;;;8.41;60.78;99617.03;5078254;28;20357;-73
2022/04/06 03:40:12;;;;;;;23.38;10.82;;;;;;;8.30;60.48;99621.50;5079049;28;20218;-75
2022/04/06 03:42:38;;;;;;;19.70;9.70;;;;;;;8.32;60.19;99611.66;5078000;28;20021;-76
2022/04/06 03:45:04;;;;;;;20.45;11.25;;;;;;;8.32;60.42;99637.16;5079298;28;20039;-76
2022/04/06 03:47:31;;;;;;;25.40;10.93;;;;;;;8.23;60.88;99635.44;5076329;28;20062;-74
2022/04/06 03:49:57;;;;;;;21.85;11.00;;;;;;;8.23;60.59;99630.16;5077349;28;20024;-73
2022/04/06 03:52:22;;;;;;;21.95;10.88;;;;;;;8.04;61.53;99635.56;5076211;28;20020;-76
2022/04/06 03:54:48;;;;;;;20.35;9.82;;;;;;;7.62;63.57;99623.72;5078473;28;20226;-74
2022/04/06 03:57:13;;;;;;;16.80;8.65;;;;;;;7.56;63.70;99624.28;5077862;28;20032;-74
2022/04/06 03:59:39;;;;;;;18.65;9.02;;;;;;;7.72;63.34;99628.09;5077923;28;20052;-76
2022/04/06 04:02:05;;;;;;;19.50;9.80;;;;;;;7.34;64.90;99645.75;5077657;28;20036;-76
2022/04/06 04:04:30;;;;;;;22.23;9.40;;;;;;;7.57;64.21;99647.03;5076127;28;20041;-76
2022/04/06 04:06:56;;;;;;;17.73;9.15;;;;;;;7.78;63.64;99644.16;5079285;28;20044;-73
2022/04/06 04:09:21;;;;;;;21.75;8.75;;;;;;;7.69;63.18;99642.41;5077806;28;20044;-73
2022/04/06 04:11:46;;;;;;;19.33;8.95;;;;;;;7.95;62.73;99651.28;5078427;28;20043;-76
2022/04/06 04:14:12;;;;;;;18.23;8.35;;;;;;;8.11;61.61;99655.91;5077873;28;20219;-78
2022/04/06 04:16:38;;;;;;;20.48;9.10;;;;;;;8.13;61.42;99648.69;5078661;28;20017;-73
2022/04/06 04:19:03;;;;;;;22.63;8.75;;;;;;;8.01;61.25;99639.31;5077713;28;20037;-73
2022/04/06 04:21:35;;;;;;;25.20;13.27;;;;;;;8.15;61.07;99644.09;5077674;28;20032;-75
2022/04/06 04:24:05;;;;;;;31.50;13.07;;;;;;;8.21;61.55;99658.47;5071805;28;20195;-76
2022/04/06 04:26:31;;;;;;;23.40;10.30;;;;;;;8.19;61.64;99663.09;5078318;28;20043;-73
2022/04/06 04:28:57;;;;;;;22.80;10.70;;;;;;;8.38;60.90;99664.81;5077656;28;20020;-73
2022/04/06 04:31:23;;;;;;;19.40;11.48;;;;;;;8.47;60.35;99653.38;5076957;28;20047;-74
2022/04/06 04:33:49;;;;;;;29.45;10.90;;;;;;;8.61;60.25;99666.03;5077591;28;20107;-74
2022/04/06 04:36:15;;;;;;;27.38;10.68;;;;;;;7.81;62.70;99643.88;5077334;28;20043;-78
2022/04/06 04:38:42;;;;;;;18.80;10.05;;;;;;;7.95;62.18;99669.75;5076737;28;20071;-73
2022/04/06 04:41:07;;;;;;;23.80;9.07;;;;;;;8.32;61.84;99684.66;5077880;28;20032;-76
2022/04/06 04:43:33;;;;;;;18.92;8.77;;;;;;;8.56;61.01;99695.50;5077763;28;20034;-73
2022/04/06 04:45:58;;;;;;;25.80;8.18;;;;;;;8.64;60.62;99700.88;5078563;28;20314;-73
2022/04/06 04:48:24;;;;;;;18.60;8.75;;;;;;;8.53;60.68;99692.34;5077559;28;20036;-74
2022/04/06 04:50:50;;;;;;;18.08;9.10;;;;;;;8.51;61.17;99691.66;5078596;28;20311;-76
2022/04/06 04:53:15;;;;;;;16.85;9.30;;;;;;;8.57;61.42;99707.72;5077363;28;20040;-74
2022/04/06 04:55:41;;;;;;;18.55;9.13;;;;;;;8.79;60.84;99705.63;5078322;28;20108;-74
2022/04/06 04:58:07;;;;;;;22.50;9.27;;;;;;;8.99;60.07;99703.66;5077249;28;20210;-73
2022/04/06 05:00:33;;;;;;;30.90;11.52;;;;;;;9.00;60.10;99702.66;5077838;28;20056;-73
2022/04/06 05:02:58;;;;;;;36.90;13.07;;;;;;;9.03;60.13;99705.00;5078456;28;20024;-74
2022/04/06 05:05:24;;;;;;;28.55;12.07;;;;;;;8.96;60.40;99702.97;5074872;28;20260;-76
2022/04/06 05:07:50;;;;;;;26.90;10.00;;;;;;;9.09;60.11;99704.38;5082016;28;20091;-76
2022/04/06 05:10:15;;;;;;;22.70;9.35;;;;;;;9.13;60.19;99698.63;5080726;28;20056;-73
2022/04/06 05:12:41;;;;;;;20.92;9.90;;;;;;;9.16;60.19;99697.50;5081140;28;20024;-73
2022/04/06 05:15:07;;;;;;;29.73;10.00;;;;;;;9.11;60.19;99697.97;5081831;28;20115;-77
2022/04/06 05:17:34;;;;;;;22.20;11.65;;;;;;;8.86;60.95;99694.28;5080677;28;20025;-78
2022/04/06 05:19:59;;;;;;;34.80;11.90;;;;;;;9.15;61.32;99712.53;5081790;28;20353;-76
2022/04/06 05:22:25;;;;;;;23.90;10.15;;;;;;;9.61;60.00;99718.47;5078672;28;20127;-77
2022/04/06 05:24:51;;;;;;;17.58;9.40;;;;;;;10.38;57.63;99712.22;5080482;28;20031;-74
2022/04/06 05:27:16;;;;;;;17.50;9.13;;;;;;;10.74;56.23;99712.81;5081648;28;20043;-76
2022/04/06 05:29:42;;;;;;;22.45;10.60;;;;;;;10.89;55.69;99699.75;5080245;28;20054;-74
2022/04/06 05:32:08;;;;;;;22.60;10.13;;;;;;;11.15;55.03;99704.88;5079772;28;20208;-74
2022/04/06 05:34:35;;;;;;;23.90;10.98;;;;;;;11.69;53.68;99726.38;5081055;28;20040;-77
2022/04/06 05:37:01;;;;;;;24.13;10.77;;;;;;;11.94;52.13;99732.47;5079163;28;20099;-77
2022/04/06 05:39:26;;;;;;;32.38;11.60;;;;;;;12.17;51.68;99733.34;5081492;28;20047;-73
2022/04/06 05:41:52;;;;;;;25.35;10.93;;;;;;;12.53;51.00;99731.06;5079849;28;20548;-74
2022/04/06 05:44:18;;;;;;;23.10;10.38;;;;;;;12.66;49.93;99735.78;5080246;28;20073;-76
2022/04/06 05:46:43;;;;;;;24.75;11.00;;;;;;;12.82;50.21;99719.75;5080738;28;20068;-73
2022/04/06 05:49:09;;;;;;;24.70;11.35;;;;;;;13.02;49.39;99741.34;5080456;28;20028;-75
2022/04/06 05:51:35;;;;;;;20.75;10.50;;;;;;;13.16;49.43;99743.22;5076847;28;20057;-78
2022/04/06 05:54:02;;;;;;;20.13;10.77;;;;;;;13.46;48.38;99740.69;5080925;28;20044;-78
2022/04/06 05:56:31;;;;;;;23.58;12.30;;;;;;;13.58;47.62;99742.75;5080025;28;20220;-73
2022/04/06 05:58:57;;;;;;;38.70;13.27;;;;;;;13.76;47.77;99725.59;5077378;28;20036;-74
2022/04/06 06:01:23;;;;;;;32.20;12.88;;;;;;;13.99;47.01;99737.00;5080360;28;20279;-74
2022/04/06 06:03:49;;;;;;;29.27;12.73;;;;;;;14.35;46.63;99729.06;5079947;28;20055;-75
2022/04/06 06:06:14;;;;;;;20.90;10.07;;;;;;;14.48;45.54;99715.09;5080488;28;20048;-74
2022/04/06 06:08:40;;;;;;;30.67;10.75;;;;;;;14.59;46.44;99725.28;5079910;28;20055;-78
2022/04/06 06:11:05;;;;;;;16.30;9.63;;;;;;;14.82;45.74;99725.94;5079987;28;20310;-74
2022/04/06 06:13:32;;;;;;;22.13;10.57;;;;;;;15.04;45.11;99725.94;5080706;28;20177;-74
2022/04/06 06:15:58;;;;;;;20.73;11.32;;;;;;;15.30;44.66;99720.84;5080465;28;20033;-78
2022/04/06 06:18:25;;;;;;;22.50;11.93;;;;;;;15.60;44.17;99724.16;5080773;28;20074;-74
2022/04/06 06:20:50;;;;;;;20.95;10.40;;;;;;;16.00;43.47;99722.59;5080507;28;20287;-75
2022/04/06 06:23:16;;;;;;;20.52;10.27;;;;;;;16.07;43.28;99718.13;5080738;28;20060;-79
2022/04/06 06:25:41;;;;;;;26.00;10.68;;;;;;;15.97;43.62;99714.97;5080277;28;20096;-78
2022/04/06 06:28:07;;;;;;;27.42;11.90;;;;;;;16.48;42.62;99717.25;5080036;28;20338;-78
2022/04/06 06:30:33;;;;;;;21.52;10.45;;;;;;;16.87;41.31;99730.78;5079623;28;20047;-79
2022/04/06 06:32:58;;;;;;;19.30;8.93;;;;;;;17.08;40.27;99713.72;5078067;28;20310;-79
2022/04/06 06:35:24;;;;;;;17.52;9.43;;;;;;;17.32;40.30;99730.19;5078442;28;20306;-74
2022/04/06 06:37:53;;;;;;;19.23;9.38;;;;;;;17.13;40.61;99731.84;5079095;28;20772;-78
2022/04/06 06:40:21;;;;;;;15.63;8.98;;;;;;;17.34;39.65;99723.59;5077161;28;20033;-77
2022/04/06 06:42:47;;;;;;;15.52;9.48;;;;;;;17.36;39.96;99731.44;5080073;28;20033;-74
2022/04/06 06:45:13;;;;;;;14.98;8.32;;;;;;;17.37;39.57;99723.19;5078954;28;20036;-75
2022/04/06 06:47:40;;;;;;;13.98;8.57;;;;;;;17.56;39.55;99727.72;5078842;28;20059;-75
2022/04/06 06:50:07;;;;;;;18.30;8.82;;;;;;;18.09;38.72;99732.19;5077233;28;20103;-74
2022/04/06 06:52:34;;;;;;;17.45;8.57;;;;;;;17.88;38.80;99735.97;5079589;28;20078;-79
2022/04/06 06:55:01;;;;;;;11.52;7.93;;;;;;;18.03;37.96;99733.88;5080350;28;20037;-80
2022/04/06 06:57:27;;;;;;;15.15;7.97;;;;;;;18.31;36.93;99727.38;5076973;28;20445;-79
2022/04/06 06:59:52;;;;;;;18.58;8.38;;;;;;;18.11;37.25;99730.94;5078780;28;20401;-75
2022/04/06 07:02:17;;;;;;;18.60;8.98;;;;;;;18.25;36.97;99734.41;5079599;28;20040;-76
2022/04/06 07:04:43;;;;;;;15.35;7.63;;;;;;;17.85;37.38;99725.66;5076768;28;20213;-75
2022/04/06 07:07:08;;;;;;;18.73;9.85;;;;;;;18.12;37.83;99742.50;5081940;28;20040;-79
2022/04/06 07:09:34;;;;;;;17.63;8.32;;;;;;;18.30;37.22;99733.78;5082666;28;20036;-79
2022/04/06 07:11:59;;;;;;;16.10;8.38;;;;;;;18.79;36.46;99733.19;5082671;28;20028;-78
2022/04/06 07:14:26;;;;;;;18.70;8.82;;;;;;;18.88;36.61;99737.25;5082570;28;20046;-77
2022/04/06 07:16:53;;;;;;;17.77;8.82;;;;;;;19.18;35.47;99731.25;5082558;28;20044;-78
2022/04/06 07:19:18;;;;;;;11.68;7.90;;;;;;;19.27;35.21;99729.94;5081655;28;20025;-79
2022/04/06 07:21:43;;;;;;;15.50;8.38;;;;;;;19.57;34.50;99730.13;5082139;28;20067;-74
2022/04/06 07:24:09;;;;;;;15.98;8.57;;;;;;;19.43;35.09;99745.50;5082659;28;20969;-75
2022/04/06 07:26:34;;;;;;;13.65;8.25;;;;;;;19.85;34.22;99743.94;5082473;28;20310;-75
2022/04/06 07:29:00;;;;;;;22.00;8.90;;;;;;;20.22;33.55;99734.03;5080407;28;20024;-78
2022/04/06 07:31:26;;;;;;;18.77;9.43;;;;;;;20.54;32.72;99745.44;5082173;28;20360;-75
2022/04/06 07:33:51;;;;;;;15.48;9.60;;;;;;;20.40;33.68;99742.09;5081626;28;20021;-75
2022/04/06 07:36:17;;;;;;;22.80;9.57;;;;;;;19.81;34.08;99745.44;5080907;28;20036;-75
2022/04/06 07:38:43;;;;;;;18.05;9.27;;;;;;;19.75;34.55;99743.59;5081524;28;20029;-75
2022/04/06 07:41:09;;;;;;;12.55;9.05;;;;;;;20.22;33.31;99739.41;5081496;28;20091;-78
2022/04/06 07:43:34;;;;;;;14.73;8.82;;;;;;;20.70;33.27;99736.75;5079987;28;20043;-76
2022/04/06 07:46:00;;;;;;;14.70;7.85;;;;;;;20.97;32.40;99734.53;5081143;28;20044;-75
2022/04/06 07:48:27;;;;;;;14.57;8.10;;;;;;;21.10;32.06;99736.19;5080303;28;20040;-79
2022/04/06 07:50:55;;;;;;;20.48;8.85;;;;;;;20.90;32.11;99730.28;5081201;28;20039;-75
2022/04/06 07:53:21;;;;;;;17.48;8.35;;;;;;;20.84;32.51;99736.59;5081535;28;20143;-75
2022/04/06 07:55:47;;;;;;;18.05;9.30;;;;;;;20.84;32.89;99732.03;5081694;28;20041;-75
2022/04/06 07:58:13;;;;;;;17.30;8.57;;;;;;;20.97;31.75;99729.16;5080703;28;20251;-80
2022/04/06 08:00:39;;;;;;;13.80;8.38;;;;;;;20.87;31.15;99736.13;5080882;28;20056;-79
2022/04/06 08:03:04;;;;;;;20.13;8.55;;;;;;;21.23;31.27;99727.94;5081896;28;20028;-79
2022/04/06 08:05:29;;;;;;;15.73;8.80;;;;;;;21.52;30.50;99737.00;5080870;28;20333;-78
2022/04/06 08:07:55;;;;;;;20.00;8.85;;;;;;;21.72;30.00;99723.16;5081194;28;20356;-75
2022/04/06 08:10:56;;;;;;;17.63;8.60;;;;;;;21.97;29.83;99734.53;5081088;28;20033;-76
2022/04/06 08:13:22;;;;;;;17.75;8.88;;;;;;;21.88;30.31;99724.34;5080718;28;20341;-76
2022/04/06 08:15:47;;;;;;;17.30;8.88;;;;;;;21.90;30.33;99722.25;5081273;28;20032;-79
2022/04/06 08:18:12;;;;;;;19.08;8.27;;;;;;;22.16;30.24;99734.44;5081168;28;20036;-79
2022/04/06 08:20:38;;;;;;;27.80;9.18;;;;;;;22.07;30.01;99725.06;5079425;28;20032;-79
2022/04/06 08:23:03;;;;;;;15.07;8.73;;;;;;;22.12;29.46;99711.69;5081187;28;20036;-75
2022/04/06 08:25:29;;;;;;;16.73;8.55;;;;;;;22.55;28.38;99722.81;5081051;28;20107;-79
2022/04/06 08:27:54;;;;;;;20.80;8.15;;;;;;;22.61;28.28;99724.53;5079475;28;20058;-79
2022/04/06 08:30:20;;;;;;;15.38;7.88;;;;;;;22.57;28.30;99717.19;5081069;28;20040;-75
2022/04/06 08:32:46;;;;;;;24.50;8.32;;;;;;;22.40;28.68;99722.50;5080672;28;20032;-75
2022/04/06 08:35:12;;;;;;;22.13;8.98;;;;;;;22.33;29.23;99716.44;5080651;28;20048;-75
2022/04/06 08:37:39;;;;;;;17.63;8.25;;;;;;;22.37;28.93;99720.28;5081018;28;20036;-76
2022/04/06 08:40:14;;;;;;;14.68;6.70;;;;;;;22.52;27.84;99704.41;5081140;28;20036;-79
2022/04/06 08:42:39;;;;;;;11.82;6.30;;;;;;;22.43;28.32;99710.44;5082405;28;20055;-75
2022/04/06 08:45:06;;;;;;;18.30;6.50;;;;;;;22.65;28.34;99687.09;5084597;28;20036;-80
2022/04/06 08:47:32;;;;;;;14.57;6.85;;;;;;;22.51;27.54;99705.47;5083275;28;20027;-79
2022/04/06 08:50:00;;;;;;;18.38;7.03;;;;;;;22.21;27.98;99694.06;5084477;28;20056;-79
2022/04/06 08:52:26;;;;;;;13.13;5.82;;;;;;;22.37;27.28;99706.81;5084597;28;20211;-76
2022/04/06 08:54:51;;;;;;;14.05;5.88;;;;;;;22.19;27.42;99710.50;5083500;28;20050;-80
2022/04/06 08:57:17;;;;;;;10.45;5.00;;;;;;;22.63;26.55;99691.91;5080282;28;20066;-76
2022/04/06 08:59:43;;;;;;;9.73;4.82;;;;;;;22.74;26.49;99687.53;5080952;28;20046;-76
2022/04/06 09:02:08;;;;;;;8.18;4.60;;;;;;;22.26;27.55;99689.59;5079999;28;20238;-76
2022/04/06 09:04:35;;;;;;;9.23;4.82;;;;;;;22.33;28.48;99680.56;5081237;28;20021;-79
2022/04/06 09:07:09;;;;;;;11.15;5.10;;;;;;;22.27;27.52;99679.63;5080031;28;20066;-76
2022/04/06 09:09:36;;;;;;;17.30;4.82;;;;;;;22.52;27.49;99682.81;5076069;28;20099;-78
2022/04/06 09:12:07;;;;;;;12.95;4.88;;;;;;;22.59;27.16;99664.59;5079053;28;20226;-76
2022/04/06 09:14:36;;;;;;;9.07;4.25;;;;;;;22.63;26.39;99675.72;5080534;28;20025;-79
2022/04/06 09:17:06;;;;;;;19.65;5.25;;;;;;;22.80;25.20;99665.81;5079864;28;20036;-75
2022/04/06 09:19:36;;;;;;;10.00;4.47;;;;;;;22.59;25.47;99661.91;5080107;28;20036;-79
2022/04/06 09:22:06;;;;;;;18.33;4.25;;;;;;;22.45;27.11;99657.88;5078771;28;20028;-75
2022/04/06 09:24:31;;;;;;;9.75;4.40;;;;;;;22.02;26.66;99642.16;5080802;28;20040;-75
2022/04/06 09:26:58;;;;;;;7.28;4.40;;;;;;;21.98;26.74;99646.41;5079597;28;20044;-80
2022/04/06 09:29:24;;;;;;;10.30;5.00;;;;;;;22.20;27.23;99643.91;5079553;28;20082;-75
2022/04/06 09:31:51;;;;;;;12.23;4.10;;;;;;;22.21;27.03;99645.53;5080519;28;20016;-81
2022/04/06 09:34:20;;;;;;;15.45;4.95;;;;;;;22.14;28.06;99639.47;5079674;28;20100;-76
2022/04/06 09:36:45;;;;;;;9.73;4.38;;;;;;;21.50;27.42;99641.28;5077767;28;20021;-78
2022/04/06 09:39:11;;;;;;;10.25;5.13;;;;;;;21.34;28.40;99635.56;5080605;28;20078;-76
2022/04/06 09:42:22;;;;;;;9.32;4.35;;;;;;;21.32;28.69;99631.47;5079075;28;20055;-78
2022/04/06 09:47:40;;;;;;;14.18;4.60;;;;;;;21.15;28.49;99615.16;5079295;28;20277;-79
2022/04/06 09:50:19;;;;;;;9.45;4.00;;;;;;;20.66;28.66;99613.66;5079519;28;20230;-75
2022/04/06 09:52:46;;;;;;;10.25;4.40;;;;;;;20.72;28.74;99608.19;5078900;28;20241;-79
2022/04/06 09:55:16;;;;;;;10.43;4.32;;;;;;;20.89;28.42;99624.50;5078637;28;20372;-79
2022/04/06 09:57:43;;;;;;;10.80;4.10;;;;;;;20.75;28.93;99604.22;5079476;28;20392;-75
2022/04/06 10:00:16;;;;;;;9.90;4.03;;;;;;;20.82;28.28;99617.59;5079151;28;20020;-79
2022/04/06 10:02:44;;;;;;;8.30;4.07;;;;;;;20.57;29.39;99610.50;5078752;28;20056;-79
2022/04/06 10:05:12;;;;;;;11.80;4.35;;;;;;;20.35;29.50;99603.97;5079262;28;20051;-74
2022/04/06 10:07:39;;;;;;;12.07;4.70;;;;;;;20.15;29.25;99600.75;5078861;28;20028;-79
2022/04/06 10:10:05;;;;;;;8.95;3.58;;;;;;;20.45;29.10;99604.25;5078558;28;20036;-79
2022/04/06 10:12:31;;;;;;;7.40;4.00;;;;;;;20.29;30.06;99586.06;5079720;28;20033;-74
2022/04/06 10:14:59;;;;;;;22.00;5.40;;;;;;;20.26;28.97;99594.59;5079248;28;20066;-74
2022/04/06 10:17:27;;;;;;;8.13;4.28;;;;;;;20.15;28.40;99590.81;5078704;28;20203;-74
2022/04/06 10:20:02;;;;;;;8.35;4.32;;;;;;;20.18;27.15;99579.59;5078740;28;20056;-77
2022/04/06 10:22:39;;;;;;;6.45;3.05;;;;;;;20.31;25.85;99587.47;5079841;28;20023;-79
2022/04/06 10:25:17;;;;;;;6.53;2.85;;;;;;;20.01;24.43;99578.59;5077868;28;20119;-74
2022/04/06 10:27:48;;;;;;;6.28;2.97;;;;;;;20.04;23.89;99581.66;5078910;28;20036;-74
2022/04/06 10:30:23;;;;;;;6.32;2.80;;;;;;;19.97;24.10;99580.09;5078535;28;20113;-78
2022/04/06 10:32:51;;;;;;;5.50;2.67;;;;;;;19.93;22.41;99578.91;5078490;28;20032;-74
2022/04/06 10:35:34;;;;;;;4.40;2.78;;;;;;;20.18;22.22;99568.84;5077395;28;20196;-78
2022/04/06 10:37:59;;;;;;;5.63;2.83;;;;;;;20.10;23.52;99571.84;5076067;28;20074;-79
2022/04/06 10:40:48;;;;;;;7.10;3.50;;;;;;;20.16;26.52;99572.81;5079104;28;20044;-78
2022/04/06 10:43:36;;;;;;;5.63;3.25;;;;;;;20.11;25.91;99572.66;5077567;28;20032;-79
2022/04/06 10:46:06;;;;;;;8.23;3.20;;;;;;;19.74;26.65;99545.84;5081491;28;20032;-74
2022/04/06 10:48:32;;;;;;;7.35;3.13;;;;;;;19.81;26.29;99562.72;5078595;28;20033;-74
2022/04/06 10:51:28;;;;;;;4.03;2.83;;;;;;;19.76;24.51;99551.81;5079120;28;20356;-78
2022/04/06 10:53:54;;;;;;;7.95;2.80;;;;;;;19.82;24.87;99555.50;5078479;28;20191;-78
2022/04/06 10:56:19;;;;;;;7.43;3.40;;;;;;;20.00;25.79;99550.91;5076890;28;20044;-78
2022/04/06 10:58:54;;;;;;;11.20;3.22;;;;;;;20.39;25.66;99546.84;5076683;28;20050;-74
2022/04/06 11:01:26;;;;;;;3.55;2.45;;;;;;;20.34;23.64;99552.06;5077338;28;20063;-79
2022/04/06 11:04:19;;;;;;;4.80;3.10;;;;;;;20.03;22.99;99552.31;5091968;28;20055;-76
2022/04/06 11:06:48;;;;;;;7.32;2.78;;;;;;;19.80;23.94;99538.78;5077161;28;20040;-75
2022/04/06 11:12:32;;;;;;;6.28;2.53;;;;;;;19.99;23.65;99529.63;5076569;28;20039;-75
2022/04/06 11:14:58;;;;;;;9.07;2.80;;;;;;;20.06;23.95;99530.34;5081288;28;20066;-79
2022/04/06 11:20:01;;;;;;;;;;;;;;;20.46;23.59;99530.59;5082105;28;20202;-75
2022/04/06 11:22:27;;;;;;;4.90;2.25;;;;;;;20.25;24.32;99521.16;5081747;28;20007;-79
2022/04/06 11:24:55;;;;;;;9.75;2.67;;;;;;;20.16;24.11;99519.03;5081711;28;20024;-77
2022/04/06 11:27:35;;;;;;;6.50;2.53;;;;;;;20.27;24.15;99511.00;5080350;28;20047;-75
2022/04/06 11:30:26;;;;;;;5.82;2.40;;;;;;;20.32;24.44;99519.19;5081002;28;20239;-75
2022/04/06 11:32:59;;;;;;;5.60;2.45;;;;;;;20.36;24.03;99511.50;5076685;28;20115;-75
2022/04/06 11:35:28;;;;;;;21.90;4.85;;;;;;;20.39;24.99;99514.56;5081229;28;20047;-78
2022/04/06 11:37:54;;;;;;;5.72;2.80;;;;;;;20.21;26.59;99511.09;5081854;28;20230;-78
2022/04/06 11:40:22;;;;;;;5.35;2.60;;;;;;;20.01;26.13;99495.28;5081680;28;20025;-75